Layton City
, Layton
Last Weather Update:1/30/2012 11:00:00 PM
Date
ETo
ETc
Rain
Irrigation
Req
Temp
Max
Temp
Min
Temp
Avg
Avg RH
Avg Wind
Avg Solar
inches
inches
incehs
inches
F
F
F
%
%
watts/m2
12/1/2011 0.08" 0.00" 0.00" 0.00" 42.5° 26.7° 35.4° 44.0% 10.4 MPH 88.9w/m2
12/2/2011 0.03" 0.00" 0.00" 0.00" 35.9° 21.2° 28.7° 66.6% 2.7 MPH 81.2w/m2
12/3/2011 0.04" 0.00" 0.00" 0.00" 37.6° 20.1° 29.3° 55.9% 3.4 MPH 95.7w/m2
12/4/2011 0.02" 0.00" 0.00" 0.00" 30.9° 20.9° 26.0° 68.8% 2.8 MPH 54.0w/m2
12/5/2011 0.03" 0.00" 0.00" 0.00" 27.2° 13.5° 20.5° 53.5% 2.4 MPH 95.4w/m2
12/6/2011 0.02" 0.00" 0.00" 0.00" 30.5° 13.4° 20.9° 62.4% 2.0 MPH 89.4w/m2
12/7/2011 0.03" 0.00" 0.00" 0.00" 35.1° 15.5° 23.9° 61.4% 1.8 MPH 90.6w/m2
12/8/2011 0.03" 0.00" 0.00" 0.00" 35.6° 17.6° 26.6° 73.4% 1.7 MPH 89.1w/m2
12/9/2011 0.03" 0.00" 0.00" 0.00" 38.5° 18.2° 27.2° 75.8% 1.6 MPH 87.3w/m2
12/10/2011 0.03" 0.00" 0.00" 0.00" 39.4° 18.2° 26.6° 75.0% 1.9 MPH 89.3w/m2
12/11/2011 0.02" 0.00" 0.00" 0.00" 39.1° 17.4° 26.6° 78.5% 1.3 MPH 77.7w/m2
12/12/2011 0.02" 0.00" 0.00" 0.00" 44.3° 19.6° 30.7° 69.6% 1.6 MPH 57.3w/m2
12/13/2011 0.01" 0.00" 0.08" -0.06" 32.4° 23.0° 29.1° 93.5% 1.3 MPH 28.9w/m2
12/14/2011 0.00" 0.00" 0.00" 0.00" 29.9° 23.4° 26.7° 96.6% 0.4 MPH 0.0w/m2
12/15/2011 0.02" 0.00" 0.00" 0.00" 31.0° 17.2° 25.2° 90.4% 1.3 MPH 52.4w/m2
12/16/2011 0.02" 0.00" 0.00" 0.00" 31.3° 19.2° 25.1° 83.3% 1.5 MPH 52.4w/m2
12/17/2011 0.02" 0.00" 0.00" 0.00" 30.0° 16.2° 23.4° 89.4% 2.1 MPH 60.7w/m2
12/18/2011 0.02" 0.00" 0.00" 0.00" 29.3° 22.8° 24.5° 89.1% 2.1 MPH 60.6w/m2
12/19/2011 0.01" 0.00" 0.01" -0.01" 27.6° 22.1° 24.2° 88.6% 1.8 MPH 45.1w/m2
12/20/2011 0.00" 0.00" 0.00" 0.00" 25.1° 24.0° 24.4° 89.6% 0.7 MPH 0.0w/m2
12/21/2011 0.00" 0.00" 0.00" 0.00" 25.4° 23.4° 24.7° 89.1% 1.1 MPH 0.0w/m2
12/22/2011 0.00" 0.00" 0.00" 0.00" 26.2° 22.5° 24.6° 87.3% 0.9 MPH 0.0w/m2
12/23/2011 0.03" 0.00" 0.00" 0.00" 34.2° 15.0° 22.3° 65.3% 1.9 MPH 76.9w/m2
12/24/2011 0.02" 0.00" 0.00" 0.00" 32.8° 13.3° 22.4° 67.8% 1.7 MPH 87.8w/m2
12/25/2011 0.03" 0.00" 0.00" 0.00" 38.4° 16.5° 24.9° 67.0% 1.7 MPH 86.4w/m2
12/26/2011 0.03" 0.00" 0.00" 0.00" 37.9° 16.3° 25.0° 72.0% 1.4 MPH 84.6w/m2
12/27/2011 0.02" 0.00" 0.00" 0.00" 38.5° 17.5° 25.7° 75.9% 1.6 MPH 68.2w/m2
12/28/2011 0.02" 0.00" 0.00" 0.00" 42.0° 22.4° 34.1° 59.2% 1.6 MPH 36.1w/m2
12/29/2011 0.00" 0.00" 0.00" 0.00" 42.8° 38.0° 39.5° 48.1% 2.0 MPH 0.0w/m2
12/30/2011 0.07" 0.00" 0.00" 0.00" 53.2° 36.2° 46.0° 50.0% 4.4 MPH 41.1w/m2
12/31/2011 0.05" 0.00" 0.00" 0.00" 38.7° 22.1° 31.6° 50.2% 4.8 MPH 94.4w/m2
Totals: 0.74" 0.00" 0.09" -0.07" 53.2° 13.3° 27.3° 72.2% 2.2 MPH 60.4w/m2